createdAt,value
2018-08-18T00:00:14.415Z,67.14
2018-08-18T00:01:14.435Z,67.82
2018-08-18T00:02:14.474Z,67.82
2018-08-18T00:03:14.494Z,67.72
2018-08-18T00:04:14.528Z,68.01
2018-08-18T00:05:14.561Z,68.01
2018-08-18T00:06:14.582Z,68.49
2018-08-18T00:07:14.608Z,68.20
2018-08-18T00:08:14.640Z,68.20
2018-08-18T00:09:14.677Z,67.52
2018-08-18T00:10:14.698Z,67.52
2018-08-18T00:11:14.730Z,67.91
2018-08-18T00:12:14.765Z,66.56
2018-08-18T00:13:14.786Z,67.62
2018-08-18T00:14:14.818Z,66.56
2018-08-18T00:15:14.849Z,66.88
2018-08-18T00:16:14.875Z,66.94
2018-08-18T00:17:14.907Z,67.43
2018-08-18T00:18:14.941Z,68.36
2018-08-18T00:19:14.966Z,68.26
2018-08-18T00:20:14.998Z,68.07
2018-08-18T00:21:15.033Z,68.20
2018-08-18T00:22:15.056Z,66.85
2018-08-18T00:23:15.090Z,67.33
2018-08-18T00:24:15.115Z,66.94
2018-08-18T00:25:15.144Z,67.62
2018-08-18T00:26:15.178Z,68.07
2018-08-18T00:27:15.206Z,68.01
2018-08-18T00:28:15.236Z,68.46
2018-08-18T00:29:15.268Z,68.75
2018-08-18T00:30:15.293Z,69.13
2018-08-18T00:31:15.322Z,68.65
2018-08-18T00:32:15.350Z,68.94
2018-08-18T00:33:15.384Z,68.55
2018-08-18T00:34:15.478Z,68.94
2018-08-18T00:35:15.470Z,68.10
2018-08-18T00:36:15.475Z,66.50
2018-08-18T00:37:15.509Z,66.69
2018-08-18T00:38:15.538Z,67.52
2018-08-18T00:39:15.566Z,68.10
2018-08-18T00:40:15.592Z,68.17
2018-08-18T00:41:15.622Z,67.69
2018-08-18T00:42:15.655Z,68.75
2018-08-18T00:43:15.680Z,69.32
2018-08-18T00:44:15.718Z,69.13
2018-08-18T00:45:15.741Z,69.32
2018-08-18T00:46:15.767Z,69.52
2018-08-18T00:47:15.803Z,69.42
2018-08-18T00:48:15.828Z,69.62
2018-08-18T00:49:15.868Z,69.04
2018-08-18T00:50:15.895Z,69.62
2018-08-18T00:51:15.925Z,67.52
2018-08-18T00:52:15.946Z,66.85
2018-08-18T00:53:15.980Z,67.97
2018-08-18T00:54:16.002Z,69.13
2018-08-18T00:55:16.048Z,69.32
2018-08-18T00:56:16.065Z,69.52
2018-08-18T00:57:16.091Z,69.90
2018-08-18T00:58:16.121Z,69.81
2018-08-18T00:59:16.164Z,69.78
2018-08-18T01:00:16.226Z,70.45
2018-08-18T01:01:16.216Z,70.48
2018-08-18T01:02:16.246Z,70.54
2018-08-18T01:03:16.274Z,70.68
2018-08-18T01:04:16.310Z,70.84
2018-08-18T01:05:16.365Z,70.68
2018-08-18T01:06:16.357Z,70.36
2018-08-18T01:07:16.390Z,70.84
2018-08-18T01:08:16.421Z,70.94
2018-08-18T01:09:16.457Z,70.94
2018-08-18T01:10:16.479Z,69.87
2018-08-18T01:11:16.580Z,70.45
2018-08-18T01:12:16.623Z,71.22
2018-08-18T01:13:16.594Z,70.16
2018-08-18T01:14:16.796Z,70.45
2018-08-18T01:15:16.626Z,71.06
2018-08-18T01:16:16.658Z,70.54
2018-08-18T01:17:16.687Z,70.68
2018-08-18T01:18:16.718Z,70.84
2018-08-18T01:19:16.750Z,70.45
2018-08-18T01:20:16.798Z,70.54
2018-08-18T01:21:16.837Z,70.64
2018-08-18T01:22:16.856Z,71.12
2018-08-18T01:23:16.866Z,70.84
2018-08-18T01:24:16.923Z,71.45
2018-08-18T01:25:16.939Z,70.94
2018-08-18T01:26:16.958Z,70.74
2018-08-18T01:27:16.987Z,71.42
2018-08-18T01:28:17.019Z,71.22
2018-08-18T01:29:17.088Z,71.12
2018-08-18T01:30:17.073Z,70.97
2018-08-18T01:31:17.109Z,70.94
2018-08-18T01:32:17.132Z,70.97
2018-08-18T01:33:17.162Z,71.32
2018-08-18T01:34:17.198Z,70.94
2018-08-18T01:35:17.231Z,70.94
2018-08-18T01:36:17.252Z,70.74
2018-08-18T01:37:17.281Z,70.84
2018-08-18T01:38:17.331Z,71.03
2018-08-18T01:39:17.337Z,71.51
2018-08-18T01:40:17.366Z,70.64
2018-08-18T01:41:17.399Z,71.03
2018-08-18T01:42:17.425Z,71.12
2018-08-18T01:43:17.456Z,70.64
2018-08-18T01:44:17.494Z,70.94
2018-08-18T01:45:17.518Z,71.51
2018-08-18T01:46:17.544Z,71.42
2018-08-18T01:47:17.595Z,70.54
2018-08-18T01:48:17.606Z,70.74
2018-08-18T01:49:17.697Z,71.22
2018-08-18T01:50:17.665Z,70.94
2018-08-18T01:51:17.708Z,70.78
2018-08-18T01:52:17.721Z,70.84
2018-08-18T01:53:17.752Z,70.87
2018-08-18T01:54:17.788Z,70.84
2018-08-18T01:55:17.817Z,70.84
2018-08-18T01:56:17.843Z,70.74
2018-08-18T01:57:17.878Z,71.32
2018-08-18T01:58:17.897Z,70.74
2018-08-18T01:59:17.930Z,71.42
2018-08-18T02:00:18.039Z,71.32
2018-08-18T02:01:17.987Z,71.70
2018-08-18T02:02:18.020Z,71.51
2018-08-18T02:03:18.077Z,70.94
2018-08-18T02:04:18.074Z,71.51
2018-08-18T02:05:18.105Z,71.22
2018-08-18T02:06:18.141Z,71.22
2018-08-18T02:07:18.162Z,71.61
2018-08-18T02:08:18.194Z,69.71
2018-08-18T02:09:18.248Z,69.90
2018-08-18T02:10:18.252Z,70.87
2018-08-18T02:11:18.294Z,70.84
2018-08-18T02:12:18.323Z,70.94
2018-08-18T02:13:18.340Z,70.94
2018-08-18T02:14:18.387Z,71.22
2018-08-18T02:15:18.403Z,71.22
2018-08-18T02:16:18.428Z,71.32
2018-08-18T02:17:18.459Z,71.42
2018-08-18T02:18:18.494Z,71.32
2018-08-18T02:19:18.524Z,71.32
2018-08-18T02:20:18.562Z,71.22
2018-08-18T02:21:18.594Z,71.32
2018-08-18T02:22:18.608Z,70.74
2018-08-18T02:23:18.646Z,71.32
2018-08-18T02:24:18.666Z,70.78
2018-08-18T02:25:18.698Z,71.45
2018-08-18T02:26:18.731Z,71.22
2018-08-18T02:27:18.780Z,70.84
2018-08-18T02:28:18.782Z,71.22
2018-08-18T02:29:18.823Z,71.70
2018-08-18T02:30:18.852Z,72.09
2018-08-18T02:31:18.875Z,72.09
2018-08-18T02:32:18.914Z,71.70
2018-08-18T02:33:18.933Z,72.58
2018-08-18T02:34:18.964Z,72.96
2018-08-18T02:35:18.998Z,71.90
2018-08-18T02:36:19.021Z,72.28
2018-08-18T02:37:19.059Z,72.77
2018-08-18T02:38:19.087Z,72.58
2018-08-18T02:39:19.121Z,72.83
2018-08-18T02:40:19.140Z,72.92
2018-08-18T02:41:19.168Z,73.31
2018-08-18T02:42:19.199Z,73.21
2018-08-18T02:43:19.231Z,73.11
2018-08-18T02:44:19.255Z,73.02
2018-08-18T02:45:19.288Z,72.92
2018-08-18T02:46:19.319Z,73.31
2018-08-18T02:47:19.363Z,73.69
2018-08-18T02:48:19.400Z,73.02
2018-08-18T02:49:19.406Z,73.31
2018-08-18T02:50:19.449Z,72.83
2018-08-18T02:51:19.466Z,73.21
2018-08-18T02:52:19.499Z,73.02
2018-08-18T02:53:19.521Z,73.21
2018-08-18T02:54:19.551Z,73.11
2018-08-18T02:55:19.593Z,73.21
2018-08-18T02:56:19.611Z,73.60
2018-08-18T02:57:19.637Z,73.41
2018-08-18T02:58:19.668Z,73.60
2018-08-18T02:59:19.697Z,73.50
2018-08-18T03:00:19.745Z,73.21
2018-08-18T03:01:19.757Z,73.41
2018-08-18T03:02:19.804Z,73.11
2018-08-18T03:03:19.818Z,73.41
2018-08-18T03:04:19.846Z,72.92
2018-08-18T03:05:19.876Z,73.02
2018-08-18T03:06:19.907Z,73.41
2018-08-18T03:07:19.944Z,73.50
2018-08-18T03:08:19.971Z,73.41
2018-08-18T03:09:20.165Z,73.50
2018-08-18T03:10:20.029Z,73.02
2018-08-18T03:11:20.715Z,73.50
2018-08-18T03:12:20.084Z,73.60
2018-08-18T03:13:20.120Z,73.41
2018-08-18T03:14:20.155Z,73.21
2018-08-18T03:15:20.177Z,72.92
2018-08-18T03:16:20.200Z,73.21
2018-08-18T03:17:20.226Z,73.50
2018-08-18T03:18:20.260Z,73.21
2018-08-18T03:19:20.291Z,73.41
2018-08-18T03:20:20.321Z,73.50
2018-08-18T03:21:20.347Z,73.44
2018-08-18T03:22:20.382Z,73.79
2018-08-18T03:23:20.412Z,73.15
2018-08-18T03:24:20.443Z,72.96
2018-08-18T03:25:20.471Z,73.31
2018-08-18T03:26:20.494Z,73.41
2018-08-18T03:27:20.520Z,73.89
2018-08-18T03:28:20.551Z,73.79
2018-08-18T03:29:20.583Z,73.79
2018-08-18T03:30:20.607Z,73.79
2018-08-18T03:31:20.645Z,73.79
2018-08-18T03:32:20.676Z,73.99
2018-08-18T03:33:20.700Z,73.99
2018-08-18T03:34:20.727Z,74.47
2018-08-18T03:35:20.759Z,74.37
2018-08-18T03:36:20.794Z,74.66
2018-08-18T03:37:20.816Z,74.57
2018-08-18T03:38:20.850Z,74.66
2018-08-18T03:39:20.906Z,74.76
2018-08-18T03:40:20.901Z,74.76
2018-08-18T03:41:20.930Z,74.57
2018-08-18T03:42:20.960Z,74.85
2018-08-18T03:43:20.993Z,74.76
2018-08-18T03:44:21.031Z,74.85
2018-08-18T03:45:21.059Z,74.47
2018-08-18T03:46:21.093Z,74.66
2018-08-18T03:47:21.125Z,74.66
2018-08-18T03:48:21.136Z,74.18
2018-08-18T03:49:21.170Z,73.89
2018-08-18T03:50:21.210Z,73.79
2018-08-18T03:51:21.251Z,73.89
2018-08-18T03:52:21.285Z,73.99
2018-08-18T03:53:21.302Z,74.18
2018-08-18T03:54:21.323Z,73.79
2018-08-18T03:55:21.343Z,73.79
2018-08-18T03:56:21.371Z,74.08
2018-08-18T03:57:21.404Z,74.37
2018-08-18T03:58:21.443Z,73.79
2018-08-18T03:59:21.456Z,74.08
2018-08-18T04:00:21.503Z,73.79
2018-08-18T04:01:21.530Z,74.18
2018-08-18T04:02:21.553Z,73.99
2018-08-18T04:03:21.580Z,73.50
2018-08-18T04:04:21.603Z,74.57
2018-08-18T04:05:21.665Z,73.89
2018-08-18T04:06:21.668Z,73.50
2018-08-18T04:07:21.701Z,74.18
2018-08-18T04:08:21.725Z,73.41
2018-08-18T04:09:21.813Z,74.27
2018-08-18T04:10:21.783Z,73.79
2018-08-18T04:11:21.887Z,73.99
2018-08-18T04:12:21.846Z,74.08
2018-08-18T04:13:21.894Z,73.89
2018-08-18T04:14:21.901Z,73.41
2018-08-18T04:15:21.939Z,73.79
2018-08-18T04:16:21.960Z,74.08
2018-08-18T04:17:21.991Z,74.37
2018-08-18T04:18:22.023Z,73.79
2018-08-18T04:19:22.050Z,74.18
2018-08-18T04:20:22.091Z,73.99
2018-08-18T04:21:22.108Z,73.69
2018-08-18T04:22:22.194Z,73.99
2018-08-18T04:23:22.173Z,73.60
2018-08-18T04:24:22.190Z,74.08
2018-08-18T04:25:22.309Z,74.18
2018-08-18T04:26:22.255Z,73.69
2018-08-18T04:27:22.292Z,73.89
2018-08-18T04:28:22.309Z,74.37
2018-08-18T04:29:22.341Z,73.89
2018-08-18T04:30:22.386Z,73.89
2018-08-18T04:31:22.483Z,74.08
2018-08-18T04:32:22.424Z,74.47
2018-08-18T04:33:22.459Z,73.41
2018-08-18T04:34:22.485Z,73.99
2018-08-18T04:35:22.539Z,73.41
2018-08-18T04:36:22.546Z,73.41
2018-08-18T04:37:22.571Z,73.89
2018-08-18T04:38:22.605Z,73.79
2018-08-18T04:39:22.640Z,73.60
2018-08-18T04:40:22.658Z,73.69
2018-08-18T04:41:22.693Z,74.37
2018-08-18T04:42:22.721Z,74.18
2018-08-18T04:43:22.750Z,73.79
2018-08-18T04:44:22.782Z,73.79
2018-08-18T04:45:22.812Z,73.89
2018-08-18T04:46:22.848Z,73.99
2018-08-18T04:47:22.866Z,73.89
2018-08-18T04:48:22.902Z,73.69
2018-08-18T04:49:22.930Z,73.99
2018-08-18T04:50:22.974Z,74.37
2018-08-18T04:51:22.983Z,73.60
2018-08-18T04:52:23.016Z,74.08
2018-08-18T04:53:23.045Z,73.99
2018-08-18T04:54:23.077Z,74.57
2018-08-18T04:55:23.101Z,73.89
2018-08-18T04:56:23.127Z,74.37
2018-08-18T04:57:23.172Z,74.33
2018-08-18T04:58:23.191Z,74.57
2018-08-18T04:59:23.299Z,74.18
2018-08-18T05:00:23.250Z,73.99
2018-08-18T05:01:23.274Z,73.69
2018-08-18T05:02:23.308Z,73.99
2018-08-18T05:03:23.374Z,74.08
2018-08-18T05:04:23.372Z,73.99
2018-08-18T05:05:23.396Z,73.79
2018-08-18T05:06:23.430Z,73.99
2018-08-18T05:07:23.452Z,74.08
2018-08-18T05:08:23.484Z,74.37
2018-08-18T05:09:23.509Z,73.69
2018-08-18T05:10:23.539Z,74.47
2018-08-18T05:11:23.582Z,73.99
2018-08-18T05:12:23.608Z,73.60
2018-08-18T05:13:23.636Z,74.91
2018-08-18T05:14:23.655Z,74.02
2018-08-18T05:15:23.702Z,73.11
2018-08-18T05:16:23.716Z,73.89
2018-08-18T05:17:23.753Z,73.79
2018-08-18T05:18:23.785Z,74.08
2018-08-18T05:19:23.916Z,74.27
2018-08-18T05:20:23.841Z,74.18
2018-08-18T05:21:23.863Z,73.60
2018-08-18T05:22:24.013Z,74.27
2018-08-18T05:23:23.918Z,74.52
2018-08-18T05:24:23.950Z,74.18
2018-08-18T05:25:23.981Z,74.37
2018-08-18T05:26:24.012Z,74.08
2018-08-18T05:27:24.051Z,74.18
2018-08-18T05:28:24.070Z,73.89
2018-08-18T05:29:24.114Z,73.89
2018-08-18T05:30:24.125Z,73.69
2018-08-18T05:31:24.184Z,73.99
2018-08-18T05:32:24.185Z,73.89
2018-08-18T05:33:24.219Z,73.41
2018-08-18T05:34:24.257Z,73.41
2018-08-18T05:35:24.275Z,73.89
2018-08-18T05:36:24.336Z,74.08
2018-08-18T05:37:24.336Z,73.41
2018-08-18T05:38:24.363Z,73.41
2018-08-18T05:39:24.399Z,73.31
2018-08-18T05:40:24.427Z,73.79
2018-08-18T05:41:24.453Z,74.18
2018-08-18T05:42:24.479Z,73.60
2018-08-18T05:43:24.518Z,74.37
2018-08-18T05:44:24.539Z,73.50
2018-08-18T05:45:24.568Z,73.89
2018-08-18T05:46:24.592Z,73.79
2018-08-18T05:47:24.643Z,73.99
2018-08-18T05:48:24.659Z,73.31
2018-08-18T05:49:24.685Z,73.31
2018-08-18T05:50:24.712Z,73.41
2018-08-18T05:51:24.747Z,74.18
2018-08-18T05:52:24.773Z,73.79
2018-08-18T05:53:24.814Z,73.99
2018-08-18T05:54:24.835Z,74.08
2018-08-18T05:55:24.864Z,73.99
2018-08-18T05:56:24.893Z,73.11
2018-08-18T05:57:24.926Z,73.79
2018-08-18T05:58:24.947Z,73.99
2018-08-18T05:59:24.974Z,73.21
2018-08-18T06:00:25.006Z,73.69
2018-08-18T06:01:25.035Z,73.60
2018-08-18T06:02:25.065Z,73.99
2018-08-18T06:03:25.091Z,74.18
2018-08-18T06:04:25.122Z,74.37
2018-08-18T06:05:25.159Z,73.41
2018-08-18T06:06:25.178Z,73.99
2018-08-18T06:07:25.209Z,73.79
2018-08-18T06:08:25.235Z,73.60
2018-08-18T06:09:25.268Z,74.27
2018-08-18T06:10:25.297Z,73.21
2018-08-18T06:11:25.326Z,73.41
2018-08-18T06:12:25.354Z,73.50
2018-08-18T06:13:25.393Z,73.50
2018-08-18T06:14:25.421Z,73.31
2018-08-18T06:15:25.440Z,73.09
2018-08-18T06:16:25.475Z,71.80
2018-08-18T06:17:25.507Z,71.42
2018-08-18T06:18:25.541Z,72.00
2018-08-18T06:19:25.570Z,72.06
2018-08-18T06:20:25.593Z,72.63
2018-08-18T06:21:25.618Z,72.73
2018-08-18T06:22:25.648Z,72.92
2018-08-18T06:23:25.677Z,73.50
2018-08-18T06:24:25.706Z,72.96
2018-08-18T06:25:25.753Z,71.90
2018-08-18T06:26:25.771Z,72.77
2018-08-18T06:27:25.793Z,72.00
2018-08-18T06:28:25.823Z,72.00
2018-08-18T06:29:25.852Z,71.80
2018-08-18T06:30:25.881Z,72.19
2018-08-18T06:31:25.914Z,71.12
2018-08-18T06:32:25.944Z,71.42
2018-08-18T06:33:26.030Z,71.32
2018-08-18T06:34:26.041Z,72.09
2018-08-18T06:35:26.031Z,71.32
2018-08-18T06:36:26.057Z,70.84
2018-08-18T06:37:26.089Z,71.51
2018-08-18T06:38:26.118Z,71.61
2018-08-18T06:39:26.149Z,71.90
2018-08-18T06:40:26.188Z,71.03
2018-08-18T06:41:26.311Z,70.74
2018-08-18T06:42:26.242Z,70.84
2018-08-18T06:43:26.270Z,71.03
2018-08-18T06:44:26.295Z,70.36
2018-08-18T06:45:26.323Z,70.84
2018-08-18T06:46:26.354Z,69.58
2018-08-18T06:47:26.378Z,69.49
2018-08-18T06:48:26.408Z,69.87
2018-08-18T06:49:26.439Z,69.78
2018-08-18T06:50:26.465Z,69.78
2018-08-18T06:51:26.494Z,68.91
2018-08-18T06:52:26.532Z,69.58
2018-08-18T06:53:26.611Z,69.87
2018-08-18T06:54:26.630Z,69.78
2018-08-18T06:55:26.625Z,68.81
2018-08-18T06:56:26.642Z,68.71
2018-08-18T06:57:26.669Z,69.39
2018-08-18T06:58:26.704Z,69.00
2018-08-18T06:59:26.739Z,69.10
2018-08-18T07:00:26.761Z,67.88
2018-08-18T07:01:26.801Z,69.00
2018-08-18T07:02:26.826Z,68.52
2018-08-18T07:03:26.855Z,68.94
2018-08-18T07:04:26.889Z,67.97
2018-08-18T07:05:26.907Z,69.29
2018-08-18T07:06:26.933Z,68.17
2018-08-18T07:07:26.967Z,68.75
2018-08-18T07:08:26.999Z,68.17
2018-08-18T07:09:27.035Z,67.59
2018-08-18T07:10:27.061Z,67.97
2018-08-18T07:11:27.091Z,68.94
2018-08-18T07:12:27.116Z,68.46
2018-08-18T07:13:27.142Z,68.65
2018-08-18T07:14:27.173Z,68.46
2018-08-18T07:15:27.223Z,67.97
2018-08-18T07:16:27.230Z,67.49
2018-08-18T07:17:27.259Z,67.69
2018-08-18T07:18:27.288Z,67.78
2018-08-18T07:19:27.350Z,67.59
2018-08-18T07:20:27.356Z,67.49
2018-08-18T07:21:27.389Z,68.01
2018-08-18T07:22:27.406Z,67.04
2018-08-18T07:23:27.447Z,66.27
2018-08-18T07:24:27.502Z,66.69
2018-08-18T07:25:27.493Z,63.98
2018-08-18T07:26:27.553Z,64.82
2018-08-18T07:27:27.555Z,64.85
2018-08-18T07:28:27.608Z,64.92
2018-08-18T07:29:27.615Z,64.85
2018-08-18T07:30:27.654Z,64.47
2018-08-18T07:31:27.689Z,64.95
2018-08-18T07:32:27.710Z,64.18
2018-08-18T07:33:27.734Z,63.31
2018-08-18T07:34:27.763Z,63.69
2018-08-18T07:35:27.787Z,63.40
2018-08-18T07:36:27.828Z,62.34
2018-08-18T07:37:27.858Z,63.11
2018-08-18T07:38:27.884Z,61.37
2018-08-18T07:39:27.911Z,62.15
2018-08-18T07:40:27.946Z,62.76
2018-08-18T07:41:27.967Z,61.57
2018-08-18T07:42:28.135Z,61.40
2018-08-18T07:43:28.025Z,60.82
2018-08-18T07:44:28.066Z,61.60
2018-08-18T07:45:28.085Z,61.30
2018-08-18T07:46:28.253Z,61.11
2018-08-18T07:47:28.143Z,61.50
2018-08-18T07:48:28.181Z,61.60
2018-08-18T07:49:28.202Z,60.63
2018-08-18T07:50:28.238Z,60.34
2018-08-18T07:51:28.261Z,60.44
2018-08-18T07:52:28.293Z,60.63
2018-08-18T07:53:28.433Z,60.72
2018-08-18T07:54:28.354Z,59.47
2018-08-18T07:55:28.391Z,59.40
2018-08-18T07:56:28.418Z,59.38
2018-08-18T07:57:28.446Z,58.50
2018-08-18T07:58:28.468Z,59.56
2018-08-18T07:59:28.503Z,59.66
2018-08-18T08:00:28.542Z,60.44
2018-08-18T08:01:28.566Z,59.76
2018-08-18T08:02:28.616Z,60.44
2018-08-18T08:03:28.631Z,60.44
2018-08-18T08:04:28.654Z,60.63
2018-08-18T08:05:28.698Z,59.28
2018-08-18T08:06:28.709Z,58.98
2018-08-18T08:07:28.755Z,60.24
2018-08-18T08:08:28.762Z,60.41
2018-08-18T08:09:28.796Z,60.14
2018-08-18T08:10:28.832Z,59.38
2018-08-18T08:11:28.881Z,60.31
2018-08-18T08:12:28.905Z,60.89
2018-08-18T08:13:28.912Z,60.79
2018-08-18T08:14:28.951Z,61.86
2018-08-18T08:15:28.979Z,61.21
2018-08-18T08:16:28.999Z,60.72
2018-08-18T08:17:29.036Z,60.24
2018-08-18T08:18:29.075Z,59.79
2018-08-18T08:19:29.095Z,58.44
2018-08-18T08:20:29.127Z,58.53
2018-08-18T08:21:29.156Z,57.95
2018-08-18T08:22:29.191Z,57.88
2018-08-18T08:23:29.224Z,57.50
2018-08-18T08:24:29.251Z,56.72
2018-08-18T08:25:29.267Z,56.21
2018-08-18T08:26:29.300Z,55.73
2018-08-18T08:27:29.329Z,55.05
2018-08-18T08:28:29.364Z,56.11
2018-08-18T08:29:29.406Z,54.57
2018-08-18T08:30:29.420Z,54.75
2018-08-18T08:31:29.446Z,55.34
2018-08-18T08:33:29.516Z,55.60
2018-08-18T08:34:29.548Z,55.51
2018-08-18T08:35:29.575Z,55.89
2018-08-18T08:36:29.607Z,56.28
2018-08-18T08:37:29.637Z,56.05
2018-08-18T08:38:29.671Z,56.93
2018-08-18T08:39:50.709Z,56.45
2018-08-18T08:40:29.717Z,56.86
2018-08-18T08:41:29.746Z,55.99
2018-08-18T08:42:29.791Z,55.79
2018-08-18T08:43:29.824Z,55.89
2018-08-18T08:44:29.845Z,55.41
2018-08-18T08:45:50.884Z,56.02
2018-08-18T08:46:29.895Z,55.92
2018-08-18T08:47:29.939Z,56.50
2018-08-18T08:48:29.986Z,56.40
2018-08-18T08:49:29.984Z,56.21
2018-08-18T08:50:30.040Z,55.43
2018-08-18T08:51:51.063Z,56.21
2018-08-18T08:52:30.075Z,56.21
2018-08-18T08:53:30.202Z,56.30
2018-08-18T08:54:30.141Z,55.92
2018-08-18T08:55:30.179Z,56.11
2018-08-18T08:56:30.197Z,55.53
2018-08-18T08:57:51.262Z,55.73
2018-08-18T08:58:30.270Z,55.73
2018-08-18T08:59:30.290Z,55.05
2018-08-18T09:00:30.311Z,55.43
2018-08-18T09:01:30.336Z,55.15
2018-08-18T09:02:30.393Z,54.47
2018-08-18T09:03:51.432Z,54.75
2018-08-18T09:04:30.443Z,54.47
2018-08-18T09:05:30.471Z,54.47
2018-08-18T09:06:30.521Z,53.89
2018-08-18T09:07:30.523Z,54.17
2018-08-18T09:08:30.554Z,54.27
2018-08-18T09:09:51.595Z,55.53
2018-08-18T09:10:30.608Z,56.63
2018-08-18T09:11:30.656Z,56.86
2018-08-18T09:12:30.666Z,58.09
2018-08-18T09:13:30.699Z,60.60
2018-08-18T09:14:30.744Z,60.31
2018-08-18T09:15:51.790Z,60.50
2018-08-18T09:16:30.800Z,59.56
2018-08-18T09:17:30.830Z,57.66
2018-08-18T09:18:30.870Z,58.92
2018-08-18T09:19:30.883Z,57.86
2018-08-18T09:20:30.927Z,56.88
2018-08-18T09:21:51.967Z,57.11
2018-08-18T09:22:30.975Z,55.10
2018-08-18T09:23:31.013Z,53.85
2018-08-18T09:24:31.046Z,56.14
2018-08-18T09:25:31.141Z,56.46
2018-08-18T09:26:31.186Z,51.13
2018-08-18T09:27:52.137Z,50.16
2018-08-18T09:28:31.149Z,49.99
2018-08-18T09:29:31.190Z,52.00
2018-08-18T09:30:31.208Z,53.23
2018-08-18T09:31:31.251Z,53.23
2018-08-18T09:32:31.275Z,53.50
2018-08-18T09:33:52.336Z,53.86
2018-08-18T09:34:31.331Z,55.02
2018-08-18T09:35:31.359Z,56.86
2018-08-18T09:36:31.395Z,55.87
2018-08-18T09:37:31.418Z,56.25
2018-08-18T09:38:31.449Z,54.90
2018-08-18T09:39:52.504Z,56.37
2018-08-18T09:40:31.509Z,56.28
2018-08-18T09:41:31.545Z,56.18
2018-08-18T09:42:31.595Z,56.09
2018-08-18T09:43:31.592Z,56.76
2018-08-18T09:44:31.626Z,56.18
2018-08-18T09:45:52.680Z,55.11
2018-08-18T09:46:31.697Z,53.57
2018-08-18T09:47:31.716Z,54.08
2018-08-18T09:48:31.740Z,55.89
2018-08-18T09:49:31.794Z,57.05
2018-08-18T09:50:31.809Z,57.05
2018-08-18T09:51:52.857Z,57.15
2018-08-18T09:52:31.869Z,56.37
2018-08-18T09:53:31.991Z,56.21
2018-08-18T09:54:31.922Z,56.02
2018-08-18T09:55:31.958Z,56.30
2018-08-18T09:56:31.992Z,57.08
2018-08-18T09:57:53.037Z,56.70
2018-08-18T09:58:32.043Z,56.43
2018-08-18T09:59:32.078Z,57.01
2018-08-18T10:00:32.118Z,55.58
2018-08-18T10:01:32.138Z,55.58
2018-08-18T10:02:32.193Z,55.49
2018-08-18T10:03:53.212Z,55.66
2018-08-18T10:04:32.306Z,54.81
2018-08-18T10:05:32.260Z,55.85
2018-08-18T10:06:32.394Z,56.24
2018-08-18T10:07:32.312Z,54.13
2018-08-18T10:08:32.343Z,53.17
2018-08-18T10:09:53.388Z,53.07
2018-08-18T10:10:32.403Z,53.43
2018-08-18T10:11:32.447Z,54.62
2018-08-18T10:12:32.456Z,53.85
2018-08-18T10:13:32.501Z,53.87
2018-08-18T10:14:32.532Z,50.21
2018-08-18T10:15:53.573Z,48.85
2018-08-18T10:16:32.584Z,49.15
2018-08-18T10:17:32.630Z,50.60
2018-08-18T10:18:32.636Z,50.99
2018-08-18T10:19:32.672Z,48.27
2018-08-18T10:20:32.713Z,47.98
2018-08-18T10:21:53.802Z,49.24
2018-08-18T10:22:32.823Z,51.18
2018-08-18T10:23:32.805Z,52.06
2018-08-18T10:24:32.822Z,52.54
2018-08-18T10:25:32.888Z,50.99
2018-08-18T10:26:35.510Z,51.06
2018-08-18T10:27:54.051Z,50.96
2018-08-18T10:28:39.352Z,52.12
2018-08-18T10:30:33.291Z,52.25
2018-08-18T10:31:35.681Z,51.09
2018-08-18T10:34:04.954Z,51.89
2018-08-18T10:35:04.962Z,51.43
2018-08-18T10:36:58.180Z,46.05
2018-08-18T10:37:58.164Z,43.95
2018-08-18T10:39:51.400Z,38.48
2018-08-18T10:40:51.404Z,36.52
2018-08-18T10:42:44.605Z,38.79
2018-08-18T10:43:44.599Z,39.41
2018-08-18T10:45:37.799Z,39.36
2018-08-18T10:46:37.810Z,38.16
2018-08-18T10:48:31.003Z,36.24
2018-08-18T10:49:31.025Z,36.51
2018-08-18T10:51:24.212Z,37.34
2018-08-18T10:52:24.214Z,36.52
2018-08-18T10:54:17.427Z,40.00
2018-08-18T10:55:17.435Z,40.37
2018-08-18T10:57:10.648Z,42.47
2018-08-18T10:58:10.662Z,42.28
2018-08-18T11:00:03.879Z,42.94
2018-08-18T11:01:03.870Z,43.71
2018-08-18T11:02:57.067Z,46.73
2018-08-18T11:03:57.194Z,46.83
2018-08-18T11:05:50.254Z,46.50
2018-08-18T11:06:50.260Z,44.35
2018-08-18T11:08:43.426Z,42.90
2018-08-18T11:09:43.447Z,44.65
2018-08-18T11:11:36.629Z,42.87
2018-08-18T11:12:36.644Z,42.72
2018-08-18T11:14:29.804Z,44.01
2018-08-18T11:15:29.829Z,42.63
2018-08-18T11:17:23.054Z,39.67
2018-08-18T11:18:23.019Z,39.29
2018-08-18T11:20:16.232Z,36.61
2018-08-18T11:21:16.219Z,36.32
2018-08-18T11:23:09.408Z,34.90
2018-08-18T11:24:09.409Z,32.15
2018-08-18T11:26:02.584Z,32.21
2018-08-18T11:27:02.599Z,32.81
2018-08-18T11:28:55.857Z,35.16
2018-08-18T11:29:55.809Z,33.67
2018-08-18T11:31:48.979Z,33.12
2018-08-18T11:32:49.007Z,31.26
2018-08-18T11:34:42.331Z,33.92
2018-08-18T11:35:42.228Z,32.81
2018-08-18T11:37:35.418Z,32.71
2018-08-18T11:38:35.428Z,36.12
2018-08-18T11:40:28.626Z,37.45
2018-08-18T11:41:28.662Z,38.67
2018-08-18T11:43:21.814Z,37.41
2018-08-18T11:44:21.844Z,37.41
2018-08-18T11:46:15.012Z,36.06
2018-08-18T11:47:15.015Z,36.63
2018-08-18T11:49:08.224Z,40.08
2018-08-18T11:50:08.232Z,40.74
2018-08-18T11:52:01.431Z,41.85
2018-08-18T11:53:01.436Z,43.29
2018-08-18T11:54:54.614Z,45.03
2018-08-18T11:55:54.646Z,40.17
2018-08-18T11:57:47.859Z,46.76
2018-08-18T11:58:47.861Z,44.03
2018-08-18T12:00:41.073Z,46.88
2018-08-18T12:01:41.065Z,43.89
2018-08-18T12:03:34.263Z,41.38
2018-08-18T12:04:34.289Z,44.20
2018-08-18T12:06:44.807Z,43.19
2018-08-18T12:07:44.849Z,42.82
2018-08-18T12:09:37.997Z,43.89
2018-08-18T12:10:38.098Z,45.52
2018-08-18T12:12:31.232Z,48.03
2018-08-18T12:13:31.239Z,46.94
2018-08-18T12:15:24.457Z,46.74
2018-08-18T12:16:24.405Z,49.34
2018-08-18T12:18:17.979Z,49.24
2018-08-18T12:19:17.693Z,49.12
2018-08-18T12:21:11.025Z,49.82
2018-08-18T12:22:10.932Z,49.51
2018-08-18T12:24:04.384Z,49.32
2018-08-18T12:25:04.192Z,49.68
2018-08-18T12:26:57.410Z,51.31
2018-08-18T12:27:57.419Z,51.09
2018-08-18T12:29:50.837Z,51.98
2018-08-18T12:30:50.664Z,47.33
2018-08-18T12:32:43.850Z,52.18
2018-08-18T12:33:43.842Z,51.79
2018-08-18T12:35:37.012Z,51.40
2018-08-18T12:36:37.143Z,48.97
2018-08-18T12:38:30.358Z,52.18
2018-08-18T12:39:30.326Z,51.69
2018-08-18T12:41:23.431Z,53.73
2018-08-18T12:42:23.468Z,49.19
2018-08-18T12:44:16.679Z,49.99
2018-08-18T12:45:16.674Z,49.90
2018-08-18T12:47:09.876Z,46.42
2018-08-18T12:48:09.913Z,50.07
2018-08-18T12:50:03.231Z,50.24
2018-08-18T12:51:03.116Z,51.98
2018-08-18T12:52:57.017Z,48.80
2018-08-18T12:53:56.324Z,46.98
2018-08-18T12:55:49.514Z,49.75
2018-08-18T12:56:49.516Z,51.98
2018-08-18T12:58:42.956Z,51.11
2018-08-18T12:59:42.770Z,51.21
2018-08-18T13:01:35.926Z,52.93
2018-08-18T13:02:35.932Z,53.80
2018-08-18T13:04:29.251Z,53.77
2018-08-18T13:05:29.155Z,54.35
2018-08-18T13:07:22.332Z,52.90
2018-08-18T13:08:22.347Z,52.22
2018-08-18T13:10:15.864Z,52.34
2018-08-18T13:11:15.565Z,52.34
2018-08-18T13:13:08.760Z,51.28
2018-08-18T13:14:08.778Z,50.41
2018-08-18T13:16:01.944Z,52.54
2018-08-18T13:17:01.986Z,53.19
2018-08-18T13:18:55.160Z,53.22
2018-08-18T13:19:55.166Z,50.14
2018-08-18T13:21:48.337Z,48.78
2018-08-18T13:22:48.358Z,50.04
2018-08-18T13:24:41.887Z,52.15
2018-08-18T13:25:41.574Z,52.15
2018-08-18T13:27:34.768Z,50.62
2018-08-18T13:28:34.755Z,53.22
2018-08-18T13:30:27.983Z,51.79
2018-08-18T13:31:28.017Z,49.17
2018-08-18T13:33:21.212Z,50.53
2018-08-18T13:34:21.153Z,50.24
2018-08-18T13:36:14.325Z,50.07
2018-08-18T13:37:14.346Z,48.52
2018-08-18T13:39:07.556Z,49.10
2018-08-18T13:40:07.563Z,48.35
2018-08-18T13:42:00.732Z,47.66
2018-08-18T13:43:00.757Z,47.86
2018-08-18T13:44:53.940Z,47.86
2018-08-18T13:45:53.947Z,50.56
2018-08-18T13:47:47.443Z,50.16
2018-08-18T13:48:47.157Z,50.14
2018-08-18T13:50:40.328Z,51.21
2018-08-18T13:51:40.340Z,52.18
2018-08-18T13:53:33.561Z,50.34
2018-08-18T13:54:33.567Z,53.83
2018-08-18T13:56:27.067Z,51.79
2018-08-18T13:57:26.766Z,53.51
2018-08-18T13:59:20.283Z,52.47